Time;durP1;ratioP1;P1;durP2;ratioP2;P2;SDS_P1;SDS_P2;PMS_P1;PMS_P2;Temp;Humidity;BMP_temperature;BMP_pressure;BME280_temperature;BME280_humidity;BME280_pressure;Samples;Min_cycle;Max_cycle;Signal;HPM_P1;HPM_P2
2021/03/19 00:02:49;;;;;;;213.95;80.65;;;;;;;-4.59;73.83;98901.85;2195250;80;21723;-73
2021/03/19 00:05:51;;;;;;;206.13;76.67;;;;;;;-4.46;73.69;98896.75;2192691;80;21760;-73
2021/03/19 00:08:53;;;;;;;192.20;72.97;;;;;;;-4.41;73.41;98897.59;2189273;80;21296;-73
2021/03/19 00:11:55;;;;;;;195.12;72.27;;;;;;;-4.40;73.43;98900.16;2196066;80;21735;-73
2021/03/19 00:14:56;;;;;;;197.13;73.67;;;;;;;-4.32;73.71;98899.30;2187667;80;21744;-73
2021/03/19 00:17:58;;;;;;;189.18;71.62;;;;;;;-4.24;73.73;98898.88;2205158;80;21292;-73
2021/03/19 00:21:00;;;;;;;196.45;75.80;;;;;;;-4.25;73.62;98896.77;2200994;80;21294;-73
2021/03/19 00:24:02;;;;;;;214.82;76.67;;;;;;;-4.27;73.53;98899.73;2195464;80;21296;-73
2021/03/19 00:27:04;;;;;;;189.70;69.95;;;;;;;-4.30;73.98;98896.33;2192435;80;21300;-73
2021/03/19 00:30:06;;;;;;;206.60;73.70;;;;;;;-4.24;73.98;98901.05;2191628;79;21307;-73
2021/03/19 00:33:08;;;;;;;207.83;76.87;;;;;;;-4.03;73.57;98899.31;2195145;80;21288;-73
2021/03/19 00:36:10;;;;;;;213.72;78.47;;;;;;;-3.98;73.56;98895.02;2198002;80;21272;-74
2021/03/19 00:39:12;;;;;;;221.87;77.80;;;;;;;-3.87;73.00;98892.45;2183362;80;21316;-73
2021/03/19 00:42:14;;;;;;;216.78;80.00;;;;;;;-3.93;72.93;98886.91;2188203;80;21359;-74
2021/03/19 00:45:16;;;;;;;204.72;76.28;;;;;;;-3.93;73.06;98893.75;2192838;80;21276;-73
2021/03/19 00:48:18;;;;;;;217.22;77.60;;;;;;;-3.98;72.45;98885.20;2204969;80;21608;-73
2021/03/19 00:51:20;;;;;;;206.13;78.30;;;;;;;-4.06;72.72;98883.51;2183006;80;21724;-73
2021/03/19 00:54:22;;;;;;;193.20;69.53;;;;;;;-4.11;73.31;98888.20;2197458;80;21284;-73
2021/03/19 00:57:24;;;;;;;164.05;62.38;;;;;;;-4.21;73.17;98881.83;2200604;80;21154;-73
2021/03/19 01:00:26;;;;;;;195.47;70.17;;;;;;;-4.15;73.48;98879.69;2165002;80;21307;-74
2021/03/19 01:03:28;;;;;;;197.55;75.08;;;;;;;-3.97;74.02;98880.08;2153120;81;21300;-73
2021/03/19 01:06:30;;;;;;;244.18;92.00;;;;;;;-3.84;73.52;98875.78;2178929;80;21314;-73
2021/03/19 01:09:32;;;;;;;266.85;97.92;;;;;;;-3.86;73.20;98878.80;2188209;80;21300;-74
2021/03/19 01:12:34;;;;;;;242.20;94.40;;;;;;;-3.86;73.29;98873.22;2210344;80;21304;-74
2021/03/19 01:15:36;;;;;;;234.60;90.90;;;;;;;-3.79;73.38;98877.05;2196208;80;21341;-74
2021/03/19 01:18:38;;;;;;;240.50;92.12;;;;;;;-3.74;73.25;98871.05;2186448;80;21288;-74
2021/03/19 01:21:40;;;;;;;228.65;89.65;;;;;;;-3.64;73.48;98871.05;2190766;80;21283;-74
2021/03/19 01:24:42;;;;;;;217.55;85.92;;;;;;;-3.50;73.39;98868.01;2191825;80;21283;-74
2021/03/19 01:27:44;;;;;;;220.57;89.65;;;;;;;-3.41;73.29;98864.11;2190062;80;21299;-74
2021/03/19 01:30:46;;;;;;;214.53;87.15;;;;;;;-3.35;73.28;98867.08;2185059;80;21304;-74
2021/03/19 01:33:48;;;;;;;221.20;85.20;;;;;;;-3.32;73.26;98865.78;2191550;80;21292;-74
2021/03/19 01:36:51;;;;;;;183.45;75.17;;;;;;;-3.29;73.35;98867.49;2199064;80;21616;-74
2021/03/19 01:39:53;;;;;;;179.18;69.92;;;;;;;-3.27;73.31;98870.48;2205117;79;21308;-74
2021/03/19 01:42:55;;;;;;;184.85;71.53;;;;;;;-3.26;73.16;98865.78;2193540;80;21307;-74
2021/03/19 01:45:57;;;;;;;160.90;65.45;;;;;;;-3.22;73.57;98860.19;2210240;80;22651;-74
2021/03/19 01:48:59;;;;;;;176.37;65.00;;;;;;;-3.12;73.53;98862.28;2194549;80;21319;-74
2021/03/19 01:52:01;;;;;;;171.35;64.20;;;;;;;-3.12;73.35;98857.99;2191691;80;21284;-74
2021/03/19 01:55:02;;;;;;;160.80;62.53;;;;;;;-3.10;73.37;98857.98;2180544;80;21387;-73
2021/03/19 01:58:04;;;;;;;158.78;59.77;;;;;;;-3.09;73.54;98865.67;2191247;79;21298;-73
2021/03/19 02:01:06;;;;;;;132.22;52.80;;;;;;;-3.05;73.59;98862.23;2191003;80;21284;-74
2021/03/19 02:04:08;;;;;;;128.85;53.48;;;;;;;-3.01;73.67;98852.81;2204467;80;21291;-74
2021/03/19 02:07:10;;;;;;;142.40;53.70;;;;;;;-2.99;73.57;98856.22;2213467;80;21295;-74
2021/03/19 02:10:12;;;;;;;129.53;50.78;;;;;;;-2.96;73.69;98857.48;2205899;80;21276;-73
2021/03/19 02:13:14;;;;;;;125.12;50.05;;;;;;;-2.88;73.72;98849.75;2196672;80;21304;-74
2021/03/19 02:16:16;;;;;;;127.35;48.48;;;;;;;-2.86;73.79;98850.17;2196900;80;21322;-74
2021/03/19 02:19:18;;;;;;;119.77;46.23;;;;;;;-2.81;73.97;98849.69;2198589;80;21279;-74
2021/03/19 02:22:20;;;;;;;119.62;47.53;;;;;;;-2.72;73.70;98851.78;2166321;80;21268;-74
2021/03/19 02:25:22;;;;;;;108.17;44.15;;;;;;;-2.69;73.82;98850.03;2192947;80;21719;-73
2021/03/19 02:28:24;;;;;;;120.90;47.65;;;;;;;-2.58;74.07;98849.97;2196474;79;21299;-73
2021/03/19 02:31:26;;;;;;;124.20;48.45;;;;;;;-2.55;73.96;98852.95;2181349;80;21309;-74
2021/03/19 02:34:28;;;;;;;145.68;56.15;;;;;;;-2.52;73.90;98854.20;2185049;80;21874;-73
2021/03/19 02:37:30;;;;;;;138.40;54.10;;;;;;;-2.55;73.80;98850.37;2205771;80;21308;-74
2021/03/19 02:40:32;;;;;;;138.52;51.68;;;;;;;-2.58;73.67;98846.11;2201177;80;21323;-73
2021/03/19 02:43:34;;;;;;;138.22;52.53;;;;;;;-2.58;73.68;98842.70;2199834;80;21295;-74
2021/03/19 02:46:36;;;;;;;137.47;52.58;;;;;;;-2.54;73.82;98839.22;2192658;80;21308;-73
2021/03/19 02:49:38;;;;;;;128.50;50.28;;;;;;;-2.55;73.78;98839.66;2188848;80;21292;-73
2021/03/19 02:52:40;;;;;;;128.18;52.50;;;;;;;-2.53;73.72;98847.35;2188548;80;21292;-73
2021/03/19 02:55:42;;;;;;;139.75;54.48;;;;;;;-2.57;73.70;98838.84;2209063;80;21295;-74
2021/03/19 02:58:44;;;;;;;148.15;56.37;;;;;;;-2.55;74.28;98837.09;2193379;80;21700;-74
2021/03/19 03:01:46;;;;;;;156.87;59.88;;;;;;;-2.43;74.15;98843.84;2204356;79;21786;-74
2021/03/19 03:04:48;;;;;;;239.60;86.30;;;;;;;-2.33;74.28;98838.20;2195941;79;21734;-74
2021/03/19 03:07:50;;;;;;;173.02;65.05;;;;;;;-2.24;74.05;98843.28;2201573;80;21739;-73
2021/03/19 03:10:52;;;;;;;151.85;61.40;;;;;;;-2.19;73.42;98843.23;2202347;80;21744;-73
2021/03/19 03:13:54;;;;;;;129.50;54.25;;;;;;;-2.40;73.50;98848.95;2196038;79;21875;-73
2021/03/19 03:16:56;;;;;;;131.80;53.20;;;;;;;-2.50;73.51;98848.20;2214037;80;21283;-73
2021/03/19 03:19:58;;;;;;;124.22;49.10;;;;;;;-2.56;73.51;98848.22;2182828;80;21289;-73
2021/03/19 03:23:00;;;;;;;;;;;;;;;-2.70;73.52;98848.75;2199803;80;21331;-73
2021/03/19 03:26:02;;;;;;;120.15;47.13;;;;;;;-2.83;74.04;98851.42;2190367;80;20496;-74
2021/03/19 03:29:05;;;;;;;124.92;48.80;;;;;;;-2.91;74.14;98845.92;2191675;80;21736;-73
2021/03/19 03:32:07;;;;;;;119.35;49.58;;;;;;;-2.96;73.96;98848.48;2189310;80;21747;-73
2021/03/19 03:35:09;;;;;;;128.70;48.98;;;;;;;-3.00;74.34;98858.38;2192845;80;21299;-73
2021/03/19 03:38:11;;;;;;;114.88;46.28;;;;;;;-2.73;74.73;98861.21;2184193;80;21311;-74
2021/03/19 03:41:13;;;;;;;133.67;51.18;;;;;;;-2.76;74.03;98857.80;2180286;80;21716;-74
2021/03/19 03:44:16;;;;;;;124.25;47.88;;;;;;;-2.95;74.10;98857.91;2195179;80;21772;-74
2021/03/19 03:47:19;;;;;;;122.20;48.17;;;;;;;-2.94;74.16;98857.05;2190099;80;21291;-73
2021/03/19 03:50:21;;;;;;;111.40;44.90;;;;;;;-2.91;74.69;98858.75;2197130;80;21315;-73
2021/03/19 03:53:23;;;;;;;107.58;43.33;;;;;;;-2.79;74.37;98857.37;2191300;79;21277;-74
2021/03/19 03:56:25;;;;;;;116.37;45.33;;;;;;;-2.96;74.29;98858.76;2196362;80;22577;-73
2021/03/19 03:59:26;;;;;;;110.17;43.35;;;;;;;-3.03;74.25;98860.53;2191087;80;21284;-74
2021/03/19 04:02:28;;;;;;;97.05;39.50;;;;;;;-3.10;74.13;98861.83;2181349;80;21287;-72
2021/03/19 04:05:30;;;;;;;105.45;40.20;;;;;;;-3.25;74.26;98858.48;2200560;80;21292;-73
2021/03/19 04:08:32;;;;;;;101.05;40.20;;;;;;;-3.30;74.29;98856.39;2193698;80;21268;-73
2021/03/19 04:11:35;;;;;;;108.55;44.48;;;;;;;-3.27;74.42;98853.80;2197647;80;21303;-73
2021/03/19 04:14:36;;;;;;;111.08;44.83;;;;;;;-3.21;74.41;98853.77;2191235;79;21379;-73
2021/03/19 04:17:38;;;;;;;118.93;46.63;;;;;;;-3.12;74.31;98856.71;2190259;80;21304;-73
2021/03/19 04:20:40;;;;;;;116.03;47.33;;;;;;;-3.11;73.82;98858.42;2195310;79;21375;-73
2021/03/19 04:23:43;;;;;;;109.90;44.15;;;;;;;-3.21;73.78;98857.61;2211676;79;21288;-73
2021/03/19 04:26:45;;;;;;;108.03;43.60;;;;;;;-3.32;73.98;98854.23;2185261;80;21279;-74
2021/03/19 04:29:47;;;;;;;101.38;41.08;;;;;;;-3.27;74.16;98857.65;2188989;80;21300;-73
2021/03/19 04:32:49;;;;;;;96.90;39.80;;;;;;;-3.36;73.62;98855.11;2187787;80;21311;-73
2021/03/19 04:35:51;;;;;;;109.20;40.70;;;;;;;-3.49;73.71;98856.90;2196905;80;21284;-73
2021/03/19 04:38:53;;;;;;;87.47;38.83;;;;;;;-3.60;73.67;98858.64;2181757;80;21327;-73
2021/03/19 04:41:55;;;;;;;103.32;40.40;;;;;;;-3.69;73.97;98864.66;2193631;80;21596;-73
2021/03/19 04:44:57;;;;;;;101.45;41.33;;;;;;;-3.71;74.41;98861.23;2182204;80;21311;-73
2021/03/19 04:48:00;;;;;;;97.10;39.60;;;;;;;-3.55;74.16;98869.31;2199677;80;21720;-73
2021/03/19 04:51:02;;;;;;;91.80;38.75;;;;;;;-3.68;73.67;98872.34;2206366;80;21708;-73
2021/03/19 04:54:04;;;;;;;93.97;37.85;;;;;;;-4.01;74.25;98875.41;2197623;80;21362;-73
2021/03/19 04:57:06;;;;;;;103.85;41.60;;;;;;;-4.01;74.25;98875.41;2197343;80;21280;-74
2021/03/19 05:00:08;;;;;;;128.27;49.55;;;;;;;-4.01;74.60;98877.96;2204818;80;21287;-73
2021/03/19 05:03:10;;;;;;;120.30;47.65;;;;;;;-3.86;74.59;98878.35;2185311;79;21174;-73
2021/03/19 05:06:13;;;;;;;123.02;48.23;;;;;;;-3.81;74.36;98876.21;2199100;80;21300;-73
2021/03/19 05:09:15;;;;;;;123.65;47.10;;;;;;;-3.81;74.46;98880.90;2198399;79;21770;-73
2021/03/19 05:12:17;;;;;;;114.45;44.85;;;;;;;-3.70;74.55;98877.88;2196847;79;21720;-73
2021/03/19 05:15:19;;;;;;;105.00;40.92;;;;;;;-3.61;74.16;98878.73;2189857;80;21324;-73
2021/03/19 05:18:21;;;;;;;99.37;42.55;;;;;;;-3.47;74.10;98883.83;2181402;80;21320;-74
2021/03/19 05:21:23;;;;;;;100.07;41.65;;;;;;;-3.26;74.26;98879.02;2188832;80;21355;-73
2021/03/19 05:24:25;;;;;;;108.32;44.65;;;;;;;-3.04;74.45;98881.91;2195011;79;21276;-73
2021/03/19 05:27:27;;;;;;;112.25;45.15;;;;;;;-2.75;74.21;98876.20;2213379;79;21280;-73
2021/03/19 05:30:29;;;;;;;125.45;49.80;;;;;;;-2.47;74.22;98877.71;2194650;80;21299;-74
2021/03/19 05:33:31;;;;;;;127.25;50.73;;;;;;;-2.30;74.33;98880.56;2201111;80;21302;-73
2021/03/19 05:36:33;;;;;;;110.90;49.45;;;;;;;-2.14;74.09;98873.16;2205437;79;21717;-73
2021/03/19 05:39:35;;;;;;;122.45;48.65;;;;;;;-2.02;74.00;98872.64;2168760;80;21275;-73
2021/03/19 05:42:37;;;;;;;112.77;48.28;;;;;;;-1.76;74.12;98880.09;2196798;80;21291;-73
2021/03/19 05:45:39;;;;;;;112.37;49.03;;;;;;;-1.59;73.80;98882.48;2188004;80;21822;-73
2021/03/19 05:48:41;;;;;;;106.58;47.60;;;;;;;-1.48;73.58;98875.92;2192229;79;21296;-73
2021/03/19 05:51:43;;;;;;;113.50;52.43;;;;;;;-1.33;73.77;98877.48;2189126;80;21315;-73
2021/03/19 05:54:45;;;;;;;103.40;45.75;;;;;;;-1.17;73.56;98877.70;2186303;80;21455;-73
2021/03/19 05:57:47;;;;;;;108.22;46.23;;;;;;;-0.89;73.88;98887.63;2193986;80;21794;-73
2021/03/19 06:00:49;;;;;;;92.45;44.48;;;;;;;-0.67;73.53;98893.80;2203316;79;21747;-73
2021/03/19 06:03:51;;;;;;;94.70;43.48;;;;;;;-0.60;73.15;98892.38;2197852;80;21300;-73
2021/03/19 06:06:53;;;;;;;95.28;40.58;;;;;;;-0.66;73.31;98896.77;2191999;79;21298;-73
2021/03/19 06:09:55;;;;;;;90.75;41.92;;;;;;;-0.74;73.42;98899.45;2190667;80;21751;-73
2021/03/19 06:12:57;;;;;;;88.25;40.63;;;;;;;-0.61;73.65;98899.69;2189653;79;21647;-73
2021/03/19 06:16:00;;;;;;;90.00;41.53;;;;;;;-0.45;73.07;98901.59;2187111;80;21723;-73
2021/03/19 06:19:02;;;;;;;83.72;38.13;;;;;;;-0.36;73.16;98901.47;2198292;80;21383;-73
2021/03/19 06:22:04;;;;;;;82.78;38.50;;;;;;;-0.26;72.88;98906.47;2165478;80;21299;-73
2021/03/19 06:25:06;;;;;;;87.08;39.33;;;;;;;-0.22;72.77;98912.00;2193091;80;21324;-72
2021/03/19 06:28:08;;;;;;;87.95;40.17;;;;;;;-0.18;72.80;98910.63;2188573;80;21362;-72
2021/03/19 06:31:10;;;;;;;83.22;37.63;;;;;;;-0.04;72.80;98903.13;2202621;80;21296;-73
2021/03/19 06:34:12;;;;;;;80.83;37.88;;;;;;;0.20;72.56;98909.56;2189901;80;21323;-72
2021/03/19 06:37:14;;;;;;;79.75;36.05;;;;;;;0.38;72.57;98909.69;2198037;79;21295;-72
2021/03/19 06:40:16;;;;;;;78.65;36.68;;;;;;;0.54;72.23;98914.58;2214539;80;21295;-72
2021/03/19 06:43:18;;;;;;;79.72;35.65;;;;;;;0.54;71.72;98908.97;2196610;80;21303;-72
2021/03/19 06:46:20;;;;;;;77.67;34.25;;;;;;;0.64;72.02;98922.55;2180780;80;21288;-72
2021/03/19 06:49:23;;;;;;;71.53;32.78;;;;;;;1.00;71.98;98917.53;2198673;80;21296;-72
2021/03/19 06:52:25;;;;;;;;;;;;;;;1.22;71.52;98917.92;2195939;80;21375;-72
2021/03/19 06:55:27;;;;;;;66.90;31.57;;;;;;;1.32;70.99;98917.28;2189361;80;20227;-72
2021/03/19 06:58:29;;;;;;;53.68;24.43;;;;;;;1.52;71.30;98911.67;2195165;80;21283;-72
2021/03/19 07:01:31;;;;;;;55.20;25.95;;;;;;;1.76;70.26;98910.26;2186881;80;21739;-72
2021/03/19 07:04:33;;;;;;;60.73;27.60;;;;;;;1.85;70.88;98909.18;2196023;80;21160;-72
2021/03/19 07:07:35;;;;;;;66.45;30.32;;;;;;;2.22;70.56;98905.69;2184615;80;21327;-71
2021/03/19 07:10:37;;;;;;;61.75;28.50;;;;;;;2.50;69.31;98903.23;2205655;80;21696;-72
2021/03/19 07:13:39;;;;;;;44.18;20.95;;;;;;;2.52;69.64;98903.19;2194175;80;21300;-72
2021/03/19 07:16:41;;;;;;;43.17;18.55;;;;;;;2.69;68.66;98907.45;2196657;80;21307;-71
2021/03/19 07:19:43;;;;;;;39.50;17.30;;;;;;;2.66;69.18;98907.97;2187444;80;21280;-72
2021/03/19 07:22:45;;;;;;;38.00;15.80;;;;;;;2.56;68.89;98909.98;2190026;80;21307;-71
2021/03/19 07:25:47;;;;;;;40.65;17.25;;;;;;;2.50;67.87;98915.30;2198130;80;21760;-71
2021/03/19 07:28:49;;;;;;;38.53;16.97;;;;;;;2.68;68.63;98918.70;2190839;80;21340;-71
2021/03/19 07:31:52;;;;;;;38.78;17.23;;;;;;;3.08;69.22;98915.44;2193935;79;21728;-71
2021/03/19 07:34:54;;;;;;;31.25;13.10;;;;;;;3.64;68.96;98912.03;2208942;79;21755;-71
2021/03/19 07:37:56;;;;;;;33.73;14.70;;;;;;;4.05;65.36;98915.05;2191975;80;21823;-71
2021/03/19 07:40:58;;;;;;;33.38;14.35;;;;;;;4.12;66.15;98908.77;2193223;79;21315;-71
2021/03/19 07:44:00;;;;;;;31.15;12.93;;;;;;;3.89;62.09;98915.98;2197565;80;21299;-71
2021/03/19 07:47:02;;;;;;;29.40;11.68;;;;;;;3.52;64.89;98922.78;2202740;80;21355;-72
2021/03/19 07:50:04;;;;;;;27.45;10.13;;;;;;;2.99;62.07;98915.69;2190077;80;21284;-71
2021/03/19 07:53:06;;;;;;;28.60;10.32;;;;;;;2.25;64.37;98922.42;2194987;80;21276;-71
2021/03/19 07:56:08;;;;;;;27.27;10.28;;;;;;;2.25;64.37;98922.42;2190073;79;21308;-71
2021/03/19 07:59:11;;;;;;;24.12;8.75;;;;;;;2.02;64.99;98916.08;2197145;80;21169;-72
2021/03/19 08:02:13;;;;;;;21.97;7.87;;;;;;;2.02;63.63;98906.19;2207292;80;21288;-72
2021/03/19 08:05:16;;;;;;;23.75;8.35;;;;;;;2.02;63.63;98906.19;2154043;80;21611;-72
2021/03/19 08:08:18;;;;;;;26.05;10.00;;;;;;;2.12;63.55;98924.47;2193930;79;21280;-72
2021/03/19 08:11:20;;;;;;;26.93;9.95;;;;;;;2.18;63.44;98918.30;2189181;80;21597;-71
2021/03/19 08:14:22;;;;;;;24.77;9.78;;;;;;;2.28;64.59;98917.63;2202616;79;21727;-72
2021/03/19 08:17:24;;;;;;;26.07;9.08;;;;;;;2.37;63.05;98920.83;2201544;79;21308;-72
2021/03/19 08:20:26;;;;;;;25.48;9.60;;;;;;;2.03;61.83;98920.83;2190061;80;21292;-72
2021/03/19 08:23:28;;;;;;;38.17;17.15;;;;;;;1.79;63.65;98919.23;2191530;80;21406;-72
2021/03/19 08:26:30;;;;;;;39.23;17.27;;;;;;;1.73;65.29;98920.68;2203500;80;21300;-72
2021/03/19 08:29:32;;;;;;;44.95;20.85;;;;;;;1.60;65.91;98922.70;2213647;80;21287;-72
2021/03/19 08:32:35;;;;;;;45.30;20.23;;;;;;;1.66;66.69;98918.67;2205985;80;21303;-72
2021/03/19 08:35:37;;;;;;;42.78;18.67;;;;;;;1.95;67.19;98919.70;2181571;80;21312;-72
2021/03/19 08:38:39;;;;;;;34.25;12.28;;;;;;;2.58;64.75;98915.95;2199382;80;21909;-72
2021/03/19 08:41:41;;;;;;;37.67;16.80;;;;;;;2.58;64.75;98915.95;2187040;80;21319;-72
2021/03/19 08:44:43;;;;;;;31.15;13.03;;;;;;;2.83;64.27;98919.16;2187805;80;21302;-72
2021/03/19 08:47:45;;;;;;;27.75;9.95;;;;;;;2.92;64.58;98913.28;2204452;80;21281;-72
2021/03/19 08:50:47;;;;;;;25.85;8.85;;;;;;;3.14;62.67;98918.30;2190418;80;21347;-72
2021/03/19 08:53:49;;;;;;;26.17;9.30;;;;;;;3.23;61.54;98924.08;2200416;80;21602;-72
2021/03/19 08:56:51;;;;;;;24.27;7.90;;;;;;;3.03;60.60;98918.17;2205301;80;21296;-72
2021/03/19 08:59:53;;;;;;;22.00;7.20;;;;;;;2.77;59.72;98924.94;2200933;80;21295;-72
2021/03/19 09:02:56;;;;;;;22.25;6.65;;;;;;;2.45;59.76;98920.61;2183214;80;21355;-72
2021/03/19 09:05:58;;;;;;;22.73;6.53;;;;;;;2.26;60.36;98921.55;2190447;80;21422;-72
2021/03/19 09:09:00;;;;;;;20.25;6.53;;;;;;;2.23;60.93;98917.75;2184927;80;21281;-72
2021/03/19 09:12:03;;;;;;;22.80;7.92;;;;;;;2.19;60.49;98921.30;2150658;81;21295;-73
2021/03/19 09:15:05;;;;;;;23.75;7.62;;;;;;;2.26;60.80;98920.25;2130887;83;21725;-72
2021/03/19 09:18:07;;;;;;;24.95;9.50;;;;;;;2.26;61.14;98918.95;2133654;83;21324;-72
2021/03/19 09:21:09;;;;;;;24.87;8.93;;;;;;;2.47;61.75;98917.98;2125413;83;21333;-72
2021/03/19 09:24:11;;;;;;;20.12;6.65;;;;;;;2.74;62.51;98913.38;2117003;83;21321;-72
2021/03/19 09:27:14;;;;;;;24.85;7.42;;;;;;;2.95;60.48;98916.24;2119518;83;21314;-72
2021/03/19 09:30:16;;;;;;;21.97;6.97;;;;;;;3.02;58.89;98916.47;2114293;83;21306;-73
2021/03/19 09:33:18;;;;;;;22.07;6.83;;;;;;;2.86;58.34;98919.95;2127099;82;21314;-73
2021/03/19 09:36:20;;;;;;;20.10;6.05;;;;;;;2.85;58.30;98916.10;2119971;82;21342;-72
2021/03/19 09:39:22;;;;;;;21.52;6.20;;;;;;;2.81;57.75;98914.03;2131041;82;21741;-72
2021/03/19 09:42:24;;;;;;;20.90;6.35;;;;;;;3.00;59.30;98916.94;2130563;83;21152;-72
2021/03/19 09:45:30;;;;;;;22.20;7.10;;;;;;;3.21;58.71;98924.55;2131860;82;21761;-73
2021/03/19 09:48:33;;;;;;;22.32;7.35;;;;;;;3.46;58.51;98918.20;2139667;82;21924;-73
2021/03/19 09:51:36;;;;;;;21.02;7.08;;;;;;;3.71;57.14;98916.13;2146393;81;21329;-73
2021/03/19 09:54:37;;;;;;;22.30;6.85;;;;;;;3.65;56.40;98917.63;2139624;81;21301;-72
2021/03/19 09:57:40;;;;;;;21.37;7.03;;;;;;;3.67;57.91;98917.13;2138099;82;21816;-73
2021/03/19 10:00:42;;;;;;;20.88;6.75;;;;;;;3.88;57.53;98914.30;2145347;81;21725;-73
2021/03/19 10:03:44;;;;;;;21.02;7.00;;;;;;;3.93;56.15;98916.28;2141064;82;21737;-72
2021/03/19 10:06:46;;;;;;;21.00;6.90;;;;;;;4.01;56.80;98906.97;2144934;81;21731;-73
2021/03/19 10:09:48;;;;;;;15.18;4.25;;;;;;;4.19;54.36;98905.95;2127596;81;21736;-73
2021/03/19 10:12:50;;;;;;;16.20;4.03;;;;;;;4.33;52.44;98905.87;2207836;80;21318;-72
2021/03/19 10:15:52;;;;;;;17.25;4.62;;;;;;;4.31;51.67;98910.28;2200589;79;21292;-72
2021/03/19 10:18:55;;;;;;;;;;;;;;;4.40;50.28;98908.28;2201383;80;21280;-72
2021/03/19 10:21:57;;;;;;;17.87;5.03;;;;;;;5.09;53.37;98909.69;2192259;80;20228;-72
2021/03/19 10:24:59;;;;;;;19.65;5.60;;;;;;;5.89;51.61;98897.48;2186317;80;21296;-72
2021/03/19 10:28:01;;;;;;;15.93;4.62;;;;;;;6.09;49.71;98902.81;2193910;80;21311;-72
2021/03/19 10:31:03;;;;;;;18.75;5.10;;;;;;;5.63;46.75;98903.74;2198666;80;21304;-72
2021/03/19 10:34:05;;;;;;;18.98;4.92;;;;;;;4.94;48.81;98907.65;2197290;80;21356;-72
2021/03/19 10:37:07;;;;;;;15.58;4.75;;;;;;;4.67;51.49;98912.95;2192121;79;21291;-72
2021/03/19 10:40:09;;;;;;;15.55;4.47;;;;;;;4.61;51.00;98914.45;2196044;80;21319;-72
2021/03/19 10:43:11;;;;;;;15.32;4.20;;;;;;;4.42;49.78;98907.76;2180598;80;21287;-72
2021/03/19 10:46:13;;;;;;;17.05;4.80;;;;;;;4.13;51.02;98917.39;2189362;80;21292;-72
2021/03/19 10:49:15;;;;;;;16.35;4.37;;;;;;;3.99;51.61;98921.72;2199679;80;21721;-72
2021/03/19 10:52:17;;;;;;;21.45;5.00;;;;;;;3.78;50.06;98930.61;2191116;80;21213;-72
2021/03/19 10:55:20;;;;;;;15.40;4.47;;;;;;;3.72;52.40;98923.45;2207758;80;21604;-72
2021/03/19 10:58:22;;;;;;;19.90;5.75;;;;;;;3.69;51.21;98923.09;2181990;80;21303;-72
2021/03/19 11:01:25;;;;;;;;;;;;;;;3.58;52.48;98926.50;2187378;80;21782;-72
2021/03/19 11:04:27;;;;;;;20.02;5.75;;;;;;;3.59;52.65;98926.87;2201807;79;20532;-72
2021/03/19 11:07:29;;;;;;;20.15;5.83;;;;;;;3.60;51.89;98928.59;2194812;80;21311;-73
2021/03/19 11:10:32;;;;;;;17.02;5.35;;;;;;;3.62;52.14;98927.65;2180515;80;21303;-72
2021/03/19 11:13:34;;;;;;;20.57;5.90;;;;;;;3.57;49.51;98928.69;2198886;80;21374;-72
2021/03/19 11:16:36;;;;;;;18.07;5.25;;;;;;;3.46;52.43;98927.27;2194405;80;21338;-72
2021/03/19 11:19:38;;;;;;;17.42;5.00;;;;;;;3.57;52.50;98924.33;2192516;80;21827;-72
2021/03/19 11:22:40;;;;;;;18.85;5.28;;;;;;;3.81;52.65;98917.99;2189008;80;21315;-72
2021/03/19 11:25:42;;;;;;;17.35;4.37;;;;;;;4.08;51.47;98912.78;2199725;80;21308;-72
2021/03/19 11:28:44;;;;;;;14.83;4.50;;;;;;;4.34;50.56;98911.93;2189936;80;21275;-72
2021/03/19 11:31:46;;;;;;;16.02;4.65;;;;;;;4.61;49.05;98911.86;2182938;80;21609;-72
2021/03/19 11:34:48;;;;;;;14.20;4.20;;;;;;;4.51;47.84;98911.32;2195334;80;21295;-72
2021/03/19 11:37:50;;;;;;;15.75;4.37;;;;;;;4.71;49.63;98905.89;2204906;79;21319;-72
2021/03/19 11:40:53;;;;;;;;;;;;;;;4.97;47.54;98905.80;2188862;80;21296;-72
2021/03/19 11:43:55;;;;;;;16.00;4.63;;;;;;;5.27;46.63;98908.16;2196581;80;20227;-72
2021/03/19 11:46:57;;;;;;;19.20;5.25;;;;;;;5.43;47.15;98901.05;2196290;80;21351;-72
2021/03/19 11:49:59;;;;;;;17.17;5.00;;;;;;;5.22;47.20;98915.28;2199769;80;21312;-72
2021/03/19 11:53:01;;;;;;;16.60;4.58;;;;;;;5.18;47.47;98904.59;2183330;80;21299;-72
2021/03/19 11:56:03;;;;;;;16.25;4.70;;;;;;;5.41;47.57;98901.58;2186975;80;21741;-72
2021/03/19 11:59:10;;;;;;;18.82;5.22;;;;;;;5.30;47.17;98905.45;2170759;80;21730;-72
2021/03/19 12:02:09;;;;;;;16.75;4.37;;;;;;;4.70;45.05;98907.65;2189272;80;21121;-72
2021/03/19 12:05:11;;;;;;;16.67;5.05;;;;;;;4.10;45.94;98920.09;2186900;80;21748;-72
2021/03/19 12:08:13;;;;;;;19.15;5.40;;;;;;;3.62;48.02;98921.59;2187423;80;21724;-72
2021/03/19 12:11:15;;;;;;;14.95;4.40;;;;;;;3.50;49.32;98917.64;2188249;80;21303;-73
2021/03/19 12:14:17;;;;;;;15.75;4.05;;;;;;;3.40;49.16;98926.14;2190360;80;21296;-73
2021/03/19 12:17:22;;;;;;;13.62;3.70;;;;;;;3.27;49.89;98923.52;2202196;80;21316;-73
2021/03/19 12:20:24;;;;;;;18.17;4.20;;;;;;;3.14;49.96;98923.03;2200244;80;21293;-73
2021/03/19 12:23:27;;;;;;;15.95;4.22;;;;;;;3.09;50.20;98933.54;2176425;81;21304;-73
2021/03/19 12:26:29;;;;;;;12.10;3.60;;;;;;;3.12;50.46;98928.72;2198383;80;21571;-73
2021/03/19 12:29:31;;;;;;;14.13;4.17;;;;;;;3.10;49.90;98926.60;2207520;80;21181;-73
2021/03/19 12:32:33;;;;;;;15.23;3.98;;;;;;;3.34;49.33;98926.33;2196961;79;21696;-73
2021/03/19 12:35:37;;;;;;;14.23;4.30;;;;;;;3.85;49.21;98922.19;2196843;80;21177;-73
2021/03/19 12:38:39;;;;;;;15.93;4.17;;;;;;;4.26;46.67;98932.94;2197827;80;21173;-73
2021/03/19 12:41:41;;;;;;;15.75;4.08;;;;;;;4.65;49.48;98918.64;2205747;80;21378;-72
2021/03/19 12:44:43;;;;;;;11.45;3.58;;;;;;;5.10;47.03;98907.50;2186833;80;21303;-73
2021/03/19 12:47:45;;;;;;;14.00;3.85;;;;;;;5.26;45.37;98912.09;2205968;80;21297;-73
2021/03/19 12:50:47;;;;;;;11.20;3.50;;;;;;;5.06;44.74;98916.74;2184999;79;21281;-73
2021/03/19 12:53:49;;;;;;;12.63;3.40;;;;;;;4.76;46.75;98910.02;2206552;80;21810;-73
2021/03/19 12:56:51;;;;;;;13.32;3.50;;;;;;;4.47;46.10;98922.28;2192563;80;21319;-73
2021/03/19 12:59:53;;;;;;;11.60;3.40;;;;;;;4.36;46.17;98920.97;2186855;80;21304;-73
2021/03/19 13:02:56;;;;;;;10.78;3.20;;;;;;;4.24;49.52;98920.91;2181005;80;21309;-73
2021/03/19 13:05:58;;;;;;;12.82;3.30;;;;;;;4.30;48.60;98915.06;2166682;80;21755;-73
2021/03/19 13:09:00;;;;;;;13.40;3.85;;;;;;;4.33;48.32;98911.52;2206624;79;21363;-73
2021/03/19 13:12:03;;;;;;;11.97;3.50;;;;;;;4.59;47.98;98913.67;2198356;80;21759;-73
2021/03/19 13:15:05;;;;;;;14.55;3.67;;;;;;;5.02;46.93;98910.82;2162544;80;21719;-73
2021/03/19 13:18:07;;;;;;;10.95;3.20;;;;;;;4.68;45.67;98914.20;2191810;80;21748;-72
2021/03/19 13:21:09;;;;;;;9.30;2.92;;;;;;;4.19;46.70;98916.34;2204182;80;21828;-73
2021/03/19 13:24:11;;;;;;;8.73;2.87;;;;;;;4.01;46.24;98922.97;2188097;81;21292;-73
2021/03/19 13:27:13;;;;;;;11.80;2.85;;;;;;;3.79;47.60;98914.16;2180517;80;21311;-73
2021/03/19 13:30:15;;;;;;;12.80;3.67;;;;;;;3.58;47.03;98915.66;2187649;80;21295;-73
2021/03/19 13:33:18;;;;;;;13.25;3.40;;;;;;;3.58;48.33;98905.75;2183525;80;21309;-73
2021/03/19 13:36:21;;;;;;;15.65;4.37;;;;;;;3.84;47.32;98906.67;2157004;80;21661;-73
2021/03/19 13:39:24;;;;;;;15.25;4.35;;;;;;;4.01;47.29;98912.16;2204069;80;21319;-73
2021/03/19 13:42:26;;;;;;;17.40;4.47;;;;;;;4.43;47.27;98899.08;2208253;79;21300;-73
2021/03/19 13:45:29;;;;;;;16.65;4.50;;;;;;;4.76;45.01;98900.09;2216195;79;21283;-73
2021/03/19 13:48:32;;;;;;;;;;;;;;;5.10;45.14;98900.12;2197700;80;21284;-73
2021/03/19 13:51:34;;;;;;;14.30;4.40;;;;;;;5.25;44.52;98895.66;2162745;81;20498;-73
2021/03/19 13:54:36;;;;;;;15.38;4.58;;;;;;;5.35;44.11;98883.16;2177359;80;21288;-73
2021/03/19 13:57:38;;;;;;;14.68;4.65;;;;;;;5.69;45.50;98878.77;2194155;80;21292;-73
2021/03/19 14:00:40;;;;;;;16.40;4.65;;;;;;;6.03;45.33;98877.86;2198748;80;21320;-73
2021/03/19 14:03:42;;;;;;;19.05;5.20;;;;;;;6.12;43.38;98881.84;2189525;80;21134;-73
2021/03/19 14:06:44;;;;;;;17.15;5.17;;;;;;;5.13;44.56;98892.20;2191588;80;21296;-73